Time;durP1;ratioP1;P1;durP2;ratioP2;P2;SDS_P1;SDS_P2;PMS_P1;PMS_P2;Temp;Humidity;BMP_temperature;BMP_pressure;BME280_temperature;BME280_humidity;BME280_pressure;Samples;Min_cycle;Max_cycle;Signal;HPM_P1;HPM_P2
2021/12/03 00:01:19;;;;;;;18.60;3.80;;;;;;;;;;5013188;28;20026;-38
2021/12/03 00:03:46;;;;;;;22.55;4.25;;;;;;;;;;5018985;28;20018;-39
2021/12/03 00:06:14;;;;;;;17.42;3.47;;;;;;;;;;5011131;28;20030;-38
2021/12/03 00:08:41;;;;;;;14.27;2.42;;;;;;;;;;5010855;28;20021;-38
2021/12/03 00:11:11;;;;;;;29.00;3.17;;;;;;;;;;5008147;28;20465;-39
2021/12/03 00:13:38;;;;;;;18.33;2.67;;;;;;;;;;5007816;28;20752;-36
2021/12/03 00:16:06;;;;;;;12.00;2.17;;;;;;;;;;5009275;28;20084;-39
2021/12/03 00:18:33;;;;;;;8.38;2.20;;;;;;;;;;5011203;28;20091;-39
2021/12/03 00:21:03;;;;;;;16.38;3.20;;;;;;;;;;5011903;28;20413;-36
2021/12/03 00:23:31;;;;;;;19.85;3.55;;;;;;;;;;5008395;28;20045;-38
2021/12/03 00:26:00;;;;;;;11.68;3.20;;;;;;;;;;5011545;28;20057;-40
2021/12/03 00:28:31;;;;;;;13.82;3.17;;;;;;;;;;5012848;28;20025;-36
2021/12/03 00:30:59;;;;;;;14.23;2.80;;;;;;;;;;5014870;28;20037;-38
2021/12/03 00:33:28;;;;;;;11.80;3.10;;;;;;;;;;5011190;28;20030;-37
2021/12/03 00:35:55;;;;;;;13.55;3.17;;;;;;;;;;5008012;28;20033;-36
2021/12/03 00:38:23;;;;;;;18.15;4.07;;;;;;;;;;5011748;28;20010;-38
2021/12/03 00:40:50;;;;;;;10.93;3.03;;;;;;;;;;5009775;28;20533;-38
2021/12/03 00:43:18;;;;;;;14.45;3.75;;;;;;;;;;5009263;28;20098;-37
2021/12/03 00:45:46;;;;;;;13.90;3.72;;;;;;;;;;5009723;28;20058;-37
2021/12/03 00:48:13;;;;;;;11.05;2.92;;;;;;;;;;5012860;28;20054;-37
2021/12/03 00:50:40;;;;;;;11.63;3.13;;;;;;;;;;5009439;28;20117;-38
2021/12/03 00:53:07;;;;;;;11.45;3.35;;;;;;;;;;5014723;28;20061;-39
2021/12/03 00:55:34;;;;;;;15.02;3.80;;;;;;;;;;5013251;28;20022;-38
2021/12/03 00:58:01;;;;;;;8.98;2.90;;;;;;;;;;5022934;28;20002;-38
2021/12/03 01:00:30;;;;;;;9.85;3.15;;;;;;;;;;5012966;28;20140;-39
2021/12/03 01:02:58;;;;;;;10.18;2.90;;;;;;;;;;5015718;28;20038;-39
2021/12/03 01:05:26;;;;;;;13.20;2.90;;;;;;;;;;5013785;28;20029;-37
2021/12/03 01:07:53;;;;;;;9.05;2.25;;;;;;;;;;5012922;28;20010;-37
2021/12/03 01:10:20;;;;;;;9.07;2.47;;;;;;;;;;5012994;28;20091;-39
2021/12/03 01:12:48;;;;;;;9.48;2.25;;;;;;;;;;5019023;28;20022;-40
2021/12/03 01:15:17;;;;;;;8.02;1.98;;;;;;;;;;5019265;28;20037;-39
2021/12/03 01:17:45;;;;;;;8.85;2.15;;;;;;;;;;5023341;28;20388;-40
2021/12/03 01:20:13;;;;;;;9.63;1.98;;;;;;;;;;5016042;28;20073;-40
2021/12/03 01:22:40;;;;;;;6.38;1.63;;;;;;;;;;5015844;28;20030;-39
2021/12/03 01:25:09;;;;;;;5.50;1.70;;;;;;;;;;5025114;28;20044;-40
2021/12/03 01:27:37;;;;;;;8.27;1.85;;;;;;;;;;5027315;28;20036;-39
2021/12/03 01:30:05;;;;;;;7.53;1.73;;;;;;;;;;5025670;28;20079;-38
2021/12/03 01:32:32;;;;;;;8.80;2.08;;;;;;;;;;5023981;28;20018;-41
2021/12/03 01:34:59;;;;;;;7.07;1.83;;;;;;;;;;5027633;28;20108;-39
2021/12/03 01:37:27;;;;;;;7.88;1.80;;;;;;;;;;5025308;28;20108;-39
2021/12/03 01:39:54;;;;;;;6.10;1.48;;;;;;;;;;5020998;28;20103;-39
2021/12/03 01:42:21;;;;;;;8.90;1.83;;;;;;;;;;5029747;28;20413;-38
2021/12/03 01:44:48;;;;;;;7.90;1.42;;;;;;;;;;5024641;28;20116;-39
2021/12/03 01:47:15;;;;;;;12.43;2.15;;;;;;;;;;5021613;28;20022;-39
2021/12/03 01:49:42;;;;;;;7.57;1.92;;;;;;;;;;5018111;28;20089;-37
2021/12/03 01:52:10;;;;;;;8.48;1.60;;;;;;;;;;5011749;28;20173;-38
2021/12/03 01:54:37;;;;;;;5.68;1.65;;;;;;;;;;5018424;28;20025;-43
2021/12/03 01:57:04;;;;;;;6.03;1.55;;;;;;;;;;5030362;28;20071;-38
2021/12/03 01:59:31;;;;;;;10.63;1.80;;;;;;;;;;5029859;28;20022;-39
2021/12/03 02:01:59;;;;;;;10.60;1.77;;;;;;;;;;5031343;28;20026;-38
2021/12/03 02:04:26;;;;;;;6.22;1.55;;;;;;;;;;5031003;28;20038;-39
2021/12/03 02:06:53;;;;;;;7.25;1.58;;;;;;;;;;5031090;28;20481;-39
2021/12/03 02:09:20;;;;;;;7.03;1.55;;;;;;;;;;5030990;28;20029;-40
2021/12/03 02:11:47;;;;;;;5.45;1.90;;;;;;;;;;5031655;28;20572;-39
2021/12/03 02:14:14;;;;;;;7.63;2.13;;;;;;;;;;5032393;28;20492;-42
2021/12/03 02:16:45;;;;;;;20.20;2.60;;;;;;;;;;5032238;28;20088;-42
2021/12/03 02:19:12;;;;;;;9.68;2.15;;;;;;;;;;5029774;28;20009;-38
2021/12/03 02:21:39;;;;;;;8.13;1.85;;;;;;;;;;5032235;28;20025;-38
2021/12/03 02:24:07;;;;;;;10.63;1.92;;;;;;;;;;5018089;28;20101;-37
2021/12/03 02:26:34;;;;;;;6.97;1.95;;;;;;;;;;5012025;28;20026;-38
2021/12/03 02:29:01;;;;;;;10.27;1.70;;;;;;;;;;5011492;28;20029;-39
2021/12/03 02:31:28;;;;;;;8.88;2.22;;;;;;;;;;5011711;28;20080;-38
2021/12/03 02:33:55;;;;;;;11.73;2.20;;;;;;;;;;5012055;28;20018;-40
2021/12/03 02:36:22;;;;;;;7.45;2.05;;;;;;;;;;5011892;28;20030;-37
2021/12/03 02:38:50;;;;;;;8.10;1.75;;;;;;;;;;5012274;28;20014;-37
2021/12/03 02:41:17;;;;;;;8.02;1.60;;;;;;;;;;5014529;28;20026;-39
2021/12/03 02:43:44;;;;;;;8.50;2.08;;;;;;;;;;5012156;28;20022;-37
2021/12/03 02:46:12;;;;;;;8.02;2.40;;;;;;;;;;5011810;28;20868;-38
2021/12/03 02:48:39;;;;;;;7.40;1.50;;;;;;;;;;5014150;28;20489;-39
2021/12/03 02:51:07;;;;;;;5.85;1.60;;;;;;;;;;5014423;28;20026;-37
2021/12/03 02:53:35;;;;;;;2.83;1.27;;;;;;;;;;5011894;28;20057;-40
2021/12/03 02:56:02;;;;;;;13.45;2.25;;;;;;;;;;5014180;28;20109;-38
2021/12/03 02:58:29;;;;;;;12.05;2.17;;;;;;;;;;5011473;28;20431;-40
2021/12/03 03:00:57;;;;;;;8.63;1.70;;;;;;;;;;5014385;28;20026;-38
2021/12/03 03:03:24;;;;;;;6.25;1.75;;;;;;;;;;5017743;28;20375;-39
2021/12/03 03:05:55;;;;;;;7.03;2.05;;;;;;;;;;5027155;28;20029;-39
2021/12/03 03:08:23;;;;;;;8.95;1.95;;;;;;;;;;5031054;28;20084;-38
2021/12/03 03:10:54;;;;;;;8.60;1.60;;;;;;;;;;5030149;28;20057;-39
2021/12/03 03:13:21;;;;;;;7.82;1.55;;;;;;;;;;5031067;28;20104;-39
2021/12/03 03:15:48;;;;;;;5.18;1.33;;;;;;;;;;5030785;28;20083;-38
2021/12/03 03:18:20;;;;;;;5.38;1.33;;;;;;;;;;5031023;28;20009;-40
2021/12/03 03:20:47;;;;;;;4.50;1.40;;;;;;;;;;5031742;28;20029;-38
2021/12/03 03:23:15;;;;;;;6.53;1.35;;;;;;;;;;5031527;28;20009;-40
2021/12/03 03:25:43;;;;;;;6.00;1.40;;;;;;;;;;5031273;28;20021;-38
2021/12/03 03:28:11;;;;;;;6.63;1.40;;;;;;;;;;5031320;28;20028;-38
2021/12/03 03:30:39;;;;;;;5.53;1.70;;;;;;;;;;5031044;28;20136;-38
2021/12/03 03:33:07;;;;;;;9.05;1.70;;;;;;;;;;5031439;28;20025;-39
2021/12/03 03:35:34;;;;;;;6.15;1.60;;;;;;;;;;5031228;28;20033;-39
2021/12/03 03:38:02;;;;;;;12.68;1.83;;;;;;;;;;5031210;28;20080;-39
2021/12/03 03:40:29;;;;;;;6.25;1.77;;;;;;;;;;5031393;28;20029;-39
2021/12/03 03:42:58;;;;;;;4.40;1.35;;;;;;;;;;5031052;28;20432;-39
2021/12/03 03:45:26;;;;;;;6.00;1.38;;;;;;;;;;5031013;28;20032;-38
2021/12/03 03:47:53;;;;;;;3.92;1.40;;;;;;;;;;5031081;28;20775;-38
2021/12/03 03:50:21;;;;;;;4.70;1.58;;;;;;;;;;5030974;28;20091;-38
2021/12/03 03:52:49;;;;;;;5.78;1.70;;;;;;;;;;5031109;28;20071;-39
2021/12/03 03:55:17;;;;;;;4.10;1.25;;;;;;;;;;5031244;28;20520;-39
2021/12/03 03:57:44;;;;;;;5.68;1.52;;;;;;;;;;5030925;28;20036;-38
2021/12/03 04:00:14;;;;;;;7.93;1.52;;;;;;;;;;5030808;28;20070;-41
2021/12/03 04:02:41;;;;;;;7.63;1.77;;;;;;;;;;5030772;28;20136;-38
2021/12/03 04:05:08;;;;;;;5.20;1.38;;;;;;;;;;5030996;28;20030;-38
2021/12/03 04:07:35;;;;;;;4.43;1.35;;;;;;;;;;5030702;28;20022;-39
2021/12/03 04:10:03;;;;;;;5.35;1.40;;;;;;;;;;5030686;28;20030;-38
2021/12/03 04:12:30;;;;;;;4.68;1.40;;;;;;;;;;5031014;28;20025;-40
2021/12/03 04:14:57;;;;;;;4.03;1.10;;;;;;;;;;5030808;28;20041;-37
2021/12/03 04:17:24;;;;;;;4.43;1.38;;;;;;;;;;5029372;28;20025;-39
2021/12/03 04:19:51;;;;;;;8.18;1.45;;;;;;;;;;5031108;28;20021;-38
2021/12/03 04:22:23;;;;;;;5.50;1.52;;;;;;;;;;5030616;28;20113;-38
2021/12/03 04:24:51;;;;;;;4.95;1.33;;;;;;;;;;5030619;28;20104;-38
2021/12/03 04:27:19;;;;;;;2.97;1.10;;;;;;;;;;5030429;28;20026;-38
2021/12/03 04:29:46;;;;;;;4.47;1.00;;;;;;;;;;5034601;28;20038;-37
2021/12/03 04:32:14;;;;;;;3.97;1.42;;;;;;;;;;5034699;28;20108;-38
2021/12/03 04:34:41;;;;;;;6.57;1.50;;;;;;;;;;5034765;28;20029;-39
2021/12/03 04:37:08;;;;;;;4.85;1.55;;;;;;;;;;5034739;28;20021;-40
2021/12/03 04:39:35;;;;;;;5.57;1.52;;;;;;;;;;5034575;28;20452;-39
2021/12/03 04:42:02;;;;;;;6.25;1.15;;;;;;;;;;5034681;28;20208;-41
2021/12/03 04:44:29;;;;;;;2.30;0.90;;;;;;;;;;5034553;28;20025;-38
2021/12/03 04:46:57;;;;;;;3.63;1.17;;;;;;;;;;5034456;28;20018;-39
2021/12/03 04:49:24;;;;;;;5.80;1.30;;;;;;;;;;5034323;28;20061;-38
2021/12/03 04:51:51;;;;;;;4.13;1.00;;;;;;;;;;5034616;28;20040;-39
2021/12/03 04:54:17;;;;;;;5.85;1.50;;;;;;;;;;5034362;28;20369;-39
2021/12/03 04:56:44;;;;;;;2.65;1.08;;;;;;;;;;5034153;28;20030;-38
2021/12/03 04:59:11;;;;;;;3.58;1.10;;;;;;;;;;5034345;28;20021;-39
2021/12/03 05:01:40;;;;;;;4.97;1.35;;;;;;;;;;5033939;28;20020;-39
2021/12/03 05:04:07;;;;;;;3.53;1.02;;;;;;;;;;5034132;28;20017;-40
2021/12/03 05:09:19;;;;;;;3.90;1.30;;;;;;;;;;5034178;28;20067;-38
2021/12/03 05:11:46;;;;;;;3.38;1.40;;;;;;;;;;5034030;28;20037;-40
2021/12/03 05:14:13;;;;;;;3.00;1.10;;;;;;;;;;5033882;28;20457;-39
2021/12/03 05:16:40;;;;;;;3.50;1.10;;;;;;;;;;5033890;28;20029;-38
2021/12/03 05:19:07;;;;;;;3.28;1.20;;;;;;;;;;5033937;28;20470;-40
2021/12/03 05:21:34;;;;;;;3.72;1.00;;;;;;;;;;5033912;28;20025;-39
2021/12/03 05:24:01;;;;;;;3.00;0.80;;;;;;;;;;5033862;28;20393;-37
2021/12/03 05:26:28;;;;;;;5.00;1.38;;;;;;;;;;5033651;28;20028;-38
2021/12/03 05:28:55;;;;;;;3.35;1.15;;;;;;;;;;5033735;28;20392;-38
2021/12/03 05:31:22;;;;;;;4.32;1.20;;;;;;;;;;5033771;28;20041;-39
2021/12/03 05:33:49;;;;;;;3.88;1.02;;;;;;;;;;5033721;28;20104;-38
2021/12/03 05:36:16;;;;;;;4.53;1.10;;;;;;;;;;5033608;28;20033;-39
2021/12/03 05:38:43;;;;;;;2.10;0.75;;;;;;;;;;5033308;28;20013;-38
2021/12/03 05:41:10;;;;;;;2.65;0.75;;;;;;;;;;5032906;28;20026;-39
2021/12/03 05:43:37;;;;;;;1.90;0.75;;;;;;;;;;5033415;28;20017;-38
2021/12/03 05:46:04;;;;;;;3.63;0.90;;;;;;;;;;5033250;28;20042;-38
2021/12/03 05:48:31;;;;;;;2.33;0.77;;;;;;;;;;5033036;28;20111;-40
2021/12/03 05:50:58;;;;;;;2.30;0.80;;;;;;;;;;5033249;28;20041;-39
2021/12/03 05:53:25;;;;;;;1.55;0.52;;;;;;;;;;5033395;28;20067;-39
2021/12/03 05:55:52;;;;;;;1.98;0.68;;;;;;;;;;5033103;28;20049;-38
2021/12/03 05:58:20;;;;;;;3.72;0.90;;;;;;;;;;5033262;28;20385;-39
2021/12/03 06:00:47;;;;;;;1.58;0.70;;;;;;;;;;5033354;28;20558;-39
2021/12/03 06:03:14;;;;;;;2.05;0.80;;;;;;;;;;5033101;28;20064;-38
2021/12/03 06:05:41;;;;;;;3.35;0.98;;;;;;;;;;5033093;28;20087;-39
2021/12/03 06:08:09;;;;;;;2.97;0.73;;;;;;;;;;5033118;28;20021;-40
2021/12/03 06:10:36;;;;;;;1.85;0.77;;;;;;;;;;5032875;28;20048;-40
2021/12/03 06:13:03;;;;;;;2.53;0.85;;;;;;;;;;5033100;28;20379;-40
2021/12/03 06:15:31;;;;;;;3.60;0.85;;;;;;;;;;5033021;28;20028;-40
2021/12/03 06:17:58;;;;;;;7.07;1.17;;;;;;;;;;5032619;28;20119;-38
2021/12/03 06:20:26;;;;;;;2.33;0.70;;;;;;;;;;5032422;28;20026;-38
2021/12/03 06:22:53;;;;;;;1.55;0.60;;;;;;;;;;5032760;28;20396;-38
2021/12/03 06:25:20;;;;;;;2.53;0.90;;;;;;;;;;5032604;28;20059;-39
2021/12/03 06:27:47;;;;;;;4.53;1.13;;;;;;;;;;5032555;28;20752;-38
2021/12/03 06:30:16;;;;;;;1.67;0.60;;;;;;;;;;5032540;28;20041;-39
2021/12/03 06:32:43;;;;;;;2.17;0.75;;;;;;;;;;5031396;28;20025;-38
2021/12/03 06:35:11;;;;;;;3.28;0.88;;;;;;;;;;5032534;28;20593;-38
2021/12/03 06:37:39;;;;;;;3.30;0.80;;;;;;;;;;5032305;28;20017;-38
2021/12/03 06:40:09;;;;;;;2.90;0.60;;;;;;;;;;5032568;28;20013;-39
2021/12/03 06:42:36;;;;;;;2.38;1.00;;;;;;;;;;5030986;28;20025;-40
2021/12/03 06:45:06;;;;;;;1.73;0.63;;;;;;;;;;5032410;28;20038;-40
2021/12/03 06:47:33;;;;;;;2.17;0.60;;;;;;;;;;5031939;28;20059;-40
2021/12/03 06:50:02;;;;;;;2.67;0.98;;;;;;;;;;5032233;28;20119;-40
2021/12/03 06:52:29;;;;;;;2.00;0.50;;;;;;;;;;5031921;28;20025;-40
2021/12/03 06:54:59;;;;;;;1.95;0.60;;;;;;;;;;5032207;28;20033;-40
2021/12/03 06:57:26;;;;;;;2.30;0.60;;;;;;;;;;5032410;28;20032;-39
2021/12/03 06:59:54;;;;;;;3.28;0.70;;;;;;;;;;5031798;28;20376;-39
2021/12/03 07:02:21;;;;;;;2.67;0.70;;;;;;;;;;5032023;28;20022;-39
2021/12/03 07:04:48;;;;;;;1.60;0.60;;;;;;;;;;5032001;28;20013;-38
2021/12/03 07:07:14;;;;;;;1.35;0.50;;;;;;;;;;5031740;28;20025;-39
2021/12/03 07:09:42;;;;;;;1.77;0.73;;;;;;;;;;5031882;28;20376;-40
2021/12/03 07:12:10;;;;;;;1.33;0.60;;;;;;;;;;5031981;28;20493;-38
2021/12/03 07:14:37;;;;;;;1.40;0.50;;;;;;;;;;5029422;28;20041;-40
2021/12/03 07:17:06;;;;;;;1.67;0.70;;;;;;;;;;5031544;28;20026;-41
2021/12/03 07:19:33;;;;;;;2.17;0.65;;;;;;;;;;5031628;28;20026;-38
2021/12/03 07:22:00;;;;;;;2.10;0.70;;;;;;;;;;5031627;28;20434;-40
2021/12/03 07:24:27;;;;;;;1.20;0.50;;;;;;;;;;5030357;28;20053;-39
2021/12/03 07:26:54;;;;;;;3.00;0.60;;;;;;;;;;5031641;28;20029;-39
2021/12/03 07:29:21;;;;;;;1.85;0.60;;;;;;;;;;5031257;28;20091;-39
2021/12/03 07:31:48;;;;;;;1.17;0.57;;;;;;;;;;5031483;28;20029;-38
2021/12/03 07:34:15;;;;;;;1.85;0.70;;;;;;;;;;5030246;28;20515;-39
2021/12/03 07:36:43;;;;;;;1.83;0.30;;;;;;;;;;5031236;28;20642;-39
2021/12/03 07:39:10;;;;;;;1.90;0.60;;;;;;;;;;5031277;28;20033;-40
2021/12/03 07:41:40;;;;;;;1.63;0.43;;;;;;;;;;5031456;28;20032;-40
2021/12/03 07:44:08;;;;;;;1.52;0.43;;;;;;;;;;5031318;28;20403;-38
2021/12/03 07:46:36;;;;;;;1.90;0.40;;;;;;;;;;5031034;28;20033;-38
2021/12/03 07:49:03;;;;;;;1.13;0.40;;;;;;;;;;5030850;28;20150;-38
2021/12/03 07:51:30;;;;;;;1.90;0.50;;;;;;;;;;5030996;28;20037;-39
2021/12/03 07:53:57;;;;;;;0.88;0.40;;;;;;;;;;5031375;28;20028;-39
2021/12/03 07:56:24;;;;;;;3.97;1.23;;;;;;;;;;5031583;28;20047;-39
2021/12/03 07:58:51;;;;;;;1.70;0.60;;;;;;;;;;5030828;28;20028;-39
2021/12/03 08:01:19;;;;;;;2.05;0.50;;;;;;;;;;5031219;28;20023;-37
2021/12/03 08:03:46;;;;;;;2.08;0.50;;;;;;;;;;5030645;28;20431;-39
2021/12/03 08:06:13;;;;;;;1.08;0.43;;;;;;;;;;5031263;28;20021;-40
2021/12/03 08:08:41;;;;;;;1.50;0.63;;;;;;;;;;5031081;28;20025;-39
2021/12/03 08:11:08;;;;;;;1.35;0.50;;;;;;;;;;5030883;28;20052;-39
2021/12/03 08:13:36;;;;;;;2.17;0.40;;;;;;;;;;5031264;28;20068;-39
2021/12/03 08:16:03;;;;;;;1.77;0.50;;;;;;;;;;5030912;28;20029;-38
2021/12/03 08:18:31;;;;;;;1.13;0.35;;;;;;;;;;5030800;28;20026;-39
2021/12/03 08:20:58;;;;;;;1.05;0.43;;;;;;;;;;5031346;28;20028;-38
2021/12/03 08:23:25;;;;;;;1.35;0.32;;;;;;;;;;5031019;28;20064;-39
2021/12/03 08:25:52;;;;;;;0.65;0.32;;;;;;;;;;5030890;28;20073;-39
2021/12/03 08:28:19;;;;;;;0.80;0.40;;;;;;;;;;5031146;28;20021;-38
2021/12/03 08:30:46;;;;;;;1.20;0.40;;;;;;;;;;5030633;28;20064;-38
2021/12/03 08:33:13;;;;;;;1.45;0.38;;;;;;;;;;5030709;28;20447;-39
2021/12/03 08:35:40;;;;;;;1.25;0.50;;;;;;;;;;5030927;28;20021;-40
2021/12/03 08:38:08;;;;;;;1.45;0.30;;;;;;;;;;5030736;28;20485;-39
2021/12/03 08:40:35;;;;;;;1.40;0.43;;;;;;;;;;5030832;28;20025;-40
2021/12/03 08:43:02;;;;;;;1.02;0.45;;;;;;;;;;5030996;28;20509;-38
2021/12/03 08:45:29;;;;;;;1.13;0.40;;;;;;;;;;5030758;28;20033;-39
2021/12/03 08:48:00;;;;;;;2.95;0.73;;;;;;;;;;5030260;28;20532;-39
2021/12/03 08:50:34;;;;;;;0.45;0.30;;;;;;;;;;5030662;28;20443;-38
2021/12/03 08:55:32;;;;;;;1.57;0.50;;;;;;;;;;5030929;28;20026;-39
2021/12/03 08:57:59;;;;;;;1.20;0.32;;;;;;;;;;5030751;28;20501;-39
2021/12/03 09:00:26;;;;;;;0.85;0.40;;;;;;;;;;5029419;28;20037;-38
2021/12/03 09:02:53;;;;;;;0.93;0.60;;;;;;;;;;5030484;28;20051;-39
2021/12/03 09:05:20;;;;;;;1.23;0.38;;;;;;;;;;5030644;28;20100;-40
2021/12/03 09:07:47;;;;;;;1.27;0.40;;;;;;;;;;5030666;28;20018;-40
2021/12/03 09:10:15;;;;;;;0.80;0.40;;;;;;;;;;5030187;28;20116;-39
2021/12/03 09:12:43;;;;;;;0.90;0.32;;;;;;;;;;5030558;28;20044;-38
2021/12/03 09:15:13;;;;;;;0.63;0.43;;;;;;;;;;5032133;28;20493;-38
2021/12/03 09:18:00;;;;;;;1.35;0.50;;;;;;;;;;5034021;28;20397;-39
2021/12/03 09:22:58;;;;;;;1.20;0.40;;;;;;;;;;5034361;28;20037;-40
2021/12/03 09:25:37;;;;;;;0.67;0.40;;;;;;;;;;5034038;28;20124;-39
2021/12/03 09:28:08;;;;;;;0.88;0.30;;;;;;;;;;5034189;28;20306;-39
2021/12/03 09:30:37;;;;;;;0.95;0.40;;;;;;;;;;5034086;28;20048;-39
2021/12/03 09:33:06;;;;;;;1.05;0.40;;;;;;;;;;5033793;28;20108;-40
2021/12/03 09:35:36;;;;;;;0.65;0.30;;;;;;;;;;5033957;28;20432;-39
2021/12/03 09:38:03;;;;;;;0.82;0.30;;;;;;;;;;5033517;28;20030;-37
2021/12/03 09:40:31;;;;;;;2.55;0.40;;;;;;;;;;5033403;28;20026;-37
2021/12/03 09:42:58;;;;;;;0.88;0.20;;;;;;;;;;5030200;28;20021;-38
2021/12/03 09:45:26;;;;;;;1.05;0.30;;;;;;;;;;5032933;28;20026;-40
2021/12/03 09:47:54;;;;;;;1.55;0.50;;;;;;;;;;5032367;28;20045;-38
2021/12/03 09:50:22;;;;;;;1.20;0.30;;;;;;;;;;5032573;28;20068;-39
2021/12/03 09:53:18;;;;;;;1.25;0.30;;;;;;;;;;5031439;28;20052;-38
2021/12/03 09:55:45;;;;;;;0.85;0.30;;;;;;;;;;5033055;28;20060;-38
2021/12/03 09:58:36;;;;;;;1.25;0.47;;;;;;;;;;5033223;28;20473;-37
2021/12/03 10:01:09;;;;;;;3.17;0.32;;;;;;;;;;5032661;28;20128;-38
2021/12/03 10:04:03;;;;;;;0.57;0.30;;;;;;;;;;5032622;28;20033;-36
2021/12/03 10:12:46;;;;;;;1.80;0.32;;;;;;;;;;5033144;28;20396;-37
2021/12/03 10:15:16;;;;;;;2.05;0.50;;;;;;;;;;5032736;28;20025;-37
2021/12/03 10:33:56;;;;;;;0.70;0.30;;;;;;;;;;5012920;28;20503;-39
2021/12/03 10:39:18;;;;;;;0.40;0.25;;;;;;;;;;5031378;28;20401;-38
2021/12/03 10:44:46;;;;;;;1.67;0.50;;;;;;;;;;5019375;28;20053;-38
2021/12/03 10:47:33;;;;;;;1.00;0.30;;;;;;;;;;5025370;28;20037;-38
2021/12/03 10:53:13;;;;;;;2.85;0.40;;;;;;;;;;5014815;28;20021;-38
2021/12/03 11:33:52;;;;;;;20.33;1.85;;;;;;;;;;5013560;28;20034;-61
2021/12/03 11:51:27;;;;;;;3.40;0.40;;;;;;;;;;4993651;28;20047;-63
2021/12/03 12:07:59;;;;;;;2.60;0.95;;;;;;;;;;5013360;28;20101;-66
2021/12/03 13:03:37;;;;;;;3.25;0.73;;;;;;;;;;5022375;28;20043;-63
2021/12/03 14:00:37;;;;;;;1.60;0.68;;;;;;;;;;5016423;28;20137;-62
2021/12/03 14:03:39;;;;;;;4.72;0.85;;;;;;;;;;5011361;28;20451;-59
2021/12/03 14:08:45;;;;;;;5.32;0.73;;;;;;;;;;5012238;28;19909;-64
2021/12/03 14:15:14;;;;;;;5.90;0.80;;;;;;;;;;5010735;28;20709;-63
2021/12/03 14:38:54;;;;;;;6.72;1.10;;;;;;;;;;5017124;28;20104;-63
2021/12/03 14:41:58;;;;;;;4.13;0.77;;;;;;;;;;5021509;28;20077;-61
2021/12/03 14:44:31;;;;;;;7.38;1.10;;;;;;;;;;5014701;28;20475;-61
2021/12/03 14:49:49;;;;;;;2.55;0.70;;;;;;;;;;5014041;28;20046;-64
2021/12/03 14:52:44;;;;;;;6.50;0.80;;;;;;;;;;5014438;28;20033;-63
2021/12/03 14:55:07;;;;;;;5.10;1.20;;;;;;;;;;5013531;28;20062;-63
2021/12/03 14:57:47;;;;;;;3.42;1.40;;;;;;;;;;5022321;28;20045;-64
2021/12/03 15:08:26;;;;;;;6.97;1.33;;;;;;;;;;5020711;28;20509;-55
2021/12/03 15:17:26;;;;;;;4.20;0.80;;;;;;;;;;5023358;28;20130;-62
2021/12/03 15:32:58;;;;;;;5.03;1.05;;;;;;;;;;5003578;28;20056;-61
2021/12/03 15:54:43;;;;;;;10.50;1.75;;;;;;;;;;5014355;28;20064;-62
2021/12/03 15:57:23;;;;;;;4.45;1.40;;;;;;;;;;5021038;28;20061;-62
2021/12/03 16:24:17;;;;;;;9.05;2.25;;;;;;;;;;5015457;28;20491;-62
2021/12/03 16:27:09;;;;;;;17.98;3.45;;;;;;;;;;5014253;28;20031;-61
2021/12/03 16:49:40;;;;;;;32.95;9.38;;;;;;;;;;5011382;28;20044;-63
2021/12/03 16:54:13;;;;;;;37.92;7.72;;;;;;;;;;5012942;28;20497;-55
2021/12/03 16:56:46;;;;;;;30.05;6.97;;;;;;;;;;5014456;28;20034;-58
2021/12/03 16:59:13;;;;;;;27.30;7.40;;;;;;;;;;5008801;28;20052;-57
2021/12/03 17:04:24;;;;;;;24.85;7.50;;;;;;;;;;5008951;28;20117;-61
2021/12/03 17:20:14;;;;;;;33.10;7.85;;;;;;;;;;5016738;28;20022;-61
2021/12/03 17:28:29;;;;;;;23.10;6.70;;;;;;;;;;5009598;28;20473;-62
2021/12/03 17:30:54;;;;;;;32.65;7.07;;;;;;;;;;5008352;28;20050;-61
2021/12/03 17:44:29;;;;;;;47.08;8.95;;;;;;;;;;5008781;28;20049;-60
2021/12/03 17:47:22;;;;;;;29.77;7.32;;;;;;;;;;5019865;28;20579;-61
2021/12/03 17:50:05;;;;;;;24.60;5.78;;;;;;;;;;5008740;28;20061;-59
2021/12/03 18:00:26;;;;;;;32.85;6.20;;;;;;;;;;5022810;28;19910;-65
2021/12/03 18:02:58;;;;;;;22.05;5.30;;;;;;;;;;5022754;28;20556;-61
2021/12/03 18:05:34;;;;;;;29.77;6.63;;;;;;;;;;5016338;28;20377;-64
2021/12/03 18:08:14;;;;;;;24.90;5.63;;;;;;;;;;5020250;28;20034;-64
2021/12/03 18:10:55;;;;;;;18.73;5.32;;;;;;;;;;5013680;28;20033;-62
2021/12/03 18:56:32;;;;;;;14.38;2.30;;;;;;;;;;5017989;28;20061;-60
2021/12/03 18:59:03;;;;;;;9.95;2.20;;;;;;;;;;5013831;28;20018;-61
2021/12/03 19:01:32;;;;;;;12.20;2.28;;;;;;;;;;5015584;28;20060;-61
2021/12/03 19:04:19;;;;;;;10.63;2.20;;;;;;;;;;5018785;28;20084;-59
2021/12/03 19:09:23;;;;;;;15.30;2.10;;;;;;;;;;5023956;28;20033;-66
2021/12/03 19:14:34;;;;;;;13.48;2.22;;;;;;;;;;5019895;28;20064;-65
2021/12/03 19:17:01;;;;;;;9.60;1.42;;;;;;;;;;5019814;28;20017;-63
2021/12/03 19:19:30;;;;;;;14.93;2.15;;;;;;;;;;5016051;28;20022;-64
2021/12/03 19:21:59;;;;;;;8.93;1.70;;;;;;;;;;5014434;28;20030;-59
2021/12/03 19:24:27;;;;;;;7.53;2.40;;;;;;;;;;5012900;28;20053;-58
2021/12/03 19:26:54;;;;;;;11.25;2.00;;;;;;;;;;5016167;28;20040;-60
2021/12/03 19:29:23;;;;;;;7.78;2.35;;;;;;;;;;5018897;28;20067;-67
2021/12/03 19:31:51;;;;;;;6.55;1.40;;;;;;;;;;5018448;28;20504;-64
2021/12/03 19:34:23;;;;;;;5.70;1.38;;;;;;;;;;5016917;28;20136;-63
2021/12/03 19:36:51;;;;;;;10.85;1.65;;;;;;;;;;5015494;28;20053;-57
2021/12/03 19:39:18;;;;;;;6.57;1.27;;;;;;;;;;5018156;28;20022;-58
2021/12/03 19:42:01;;;;;;;7.85;1.58;;;;;;;;;;5014102;28;20117;-61
2021/12/03 19:44:36;;;;;;;5.78;1.80;;;;;;;;;;5019389;28;20035;-62
2021/12/03 19:47:03;;;;;;;8.80;1.67;;;;;;;;;;5017690;28;20039;-65
2021/12/03 19:49:36;;;;;;;9.70;1.58;;;;;;;;;;5017235;28;20041;-65
2021/12/03 19:52:11;;;;;;;;;;;;;;;;;;5013213;28;20471;-60
2021/12/03 19:54:38;;;;;;;7.18;1.20;;;;;;;;;;5018721;28;19949;-61
2021/12/03 19:57:05;;;;;;;10.52;1.88;;;;;;;;;;5019716;28;20034;-60
2021/12/03 19:59:32;;;;;;;5.93;1.63;;;;;;;;;;5012834;28;20041;-64
2021/12/03 20:02:00;;;;;;;9.48;1.73;;;;;;;;;;5007886;28;20034;-57
2021/12/03 20:04:28;;;;;;;5.70;1.17;;;;;;;;;;5019601;28;20032;-61
2021/12/03 20:06:55;;;;;;;5.38;1.40;;;;;;;;;;5019475;28;20083;-60
2021/12/03 20:09:28;;;;;;;5.57;1.60;;;;;;;;;;5015644;28;20496;-66
2021/12/03 20:12:04;;;;;;;6.55;1.20;;;;;;;;;;5007086;28;20014;-60
2021/12/03 20:14:31;;;;;;;5.95;1.25;;;;;;;;;;5018738;28;20354;-63
2021/12/03 20:17:22;;;;;;;4.65;0.95;;;;;;;;;;5018665;28;20036;-58
2021/12/03 20:19:51;;;;;;;9.20;1.30;;;;;;;;;;5020170;28;20036;-67
2021/12/03 20:22:50;;;;;;;8.07;1.50;;;;;;;;;;5012524;28;20035;-60
2021/12/03 20:25:31;;;;;;;6.70;1.30;;;;;;;;;;5020738;28;20124;-60
2021/12/03 20:38:22;;;;;;;13.68;1.45;;;;;;;;;;5009050;28;20034;-63
2021/12/03 20:40:54;;;;;;;4.43;1.20;;;;;;;;;;5009345;28;20037;-62
2021/12/03 20:54:22;;;;;;;9.23;1.40;;;;;;;;;;5007393;28;20543;-62
2021/12/03 21:10:27;;;;;;;4.75;1.20;;;;;;;;;;5014999;28;20120;-61
2021/12/03 21:12:57;;;;;;;9.13;1.13;;;;;;;;;;5021598;28;20040;-61
2021/12/03 21:15:41;;;;;;;6.50;1.13;;;;;;;;;;5023223;28;20108;-61
2021/12/03 21:23:33;;;;;;;5.68;1.10;;;;;;;;;;5017679;28;20037;-62
2021/12/03 21:26:01;;;;;;;9.55;1.52;;;;;;;;;;5022830;28;20109;-62
2021/12/03 21:31:09;;;;;;;7.82;1.73;;;;;;;;;;5023159;28;20061;-60
2021/12/03 21:41:22;;;;;;;3.42;1.13;;;;;;;;;;5018386;28;20481;-59
2021/12/03 21:43:50;;;;;;;5.43;1.60;;;;;;;;;;5020620;28;20057;-58
2021/12/03 21:46:19;;;;;;;4.00;1.08;;;;;;;;;;5018200;28;20024;-59
2021/12/03 21:48:46;;;;;;;3.60;1.05;;;;;;;;;;5023727;28;20485;-61
2021/12/03 21:51:13;;;;;;;4.30;1.27;;;;;;;;;;5012749;28;20030;-62
2021/12/03 21:53:40;;;;;;;3.10;0.98;;;;;;;;;;5014763;28;20029;-62
2021/12/03 21:56:07;;;;;;;8.60;1.50;;;;;;;;;;5017275;28;20029;-62
2021/12/03 21:58:34;;;;;;;5.20;1.10;;;;;;;;;;5024263;28;20021;-62
2021/12/03 22:01:01;;;;;;;4.13;1.00;;;;;;;;;;5013175;28;20381;-61
2021/12/03 22:03:29;;;;;;;5.03;1.30;;;;;;;;;;5016048;28;20021;-62
2021/12/03 22:05:56;;;;;;;4.30;0.88;;;;;;;;;;5020681;28;20021;-62
2021/12/03 22:08:23;;;;;;;2.65;0.73;;;;;;;;;;5016446;28;20044;-62
2021/12/03 22:10:50;;;;;;;6.68;1.40;;;;;;;;;;5019051;28;20543;-62
2021/12/03 22:13:23;;;;;;;5.15;1.17;;;;;;;;;;5023395;28;20025;-53
2021/12/03 22:15:54;;;;;;;3.13;1.30;;;;;;;;;;5021293;28;20088;-64
2021/12/03 22:18:23;;;;;;;2.63;0.80;;;;;;;;;;5023144;28;20328;-60
2021/12/03 22:20:51;;;;;;;3.67;1.00;;;;;;;;;;5015543;28;20037;-61
2021/12/03 22:23:18;;;;;;;4.32;1.10;;;;;;;;;;5021781;28;20145;-65
2021/12/03 22:25:45;;;;;;;3.10;0.98;;;;;;;;;;5021775;28;20036;-60
2021/12/03 22:28:12;;;;;;;3.70;0.77;;;;;;;;;;5021806;28;20018;-59
2021/12/03 22:30:41;;;;;;;2.97;0.90;;;;;;;;;;5022490;28;20227;-61
2021/12/03 22:33:09;;;;;;;8.02;1.08;;;;;;;;;;5023042;28;20385;-63
2021/12/03 22:35:36;;;;;;;5.18;1.20;;;;;;;;;;5021426;28;20034;-63
2021/12/03 22:38:03;;;;;;;3.35;1.15;;;;;;;;;;5015294;28;20022;-63
2021/12/03 22:40:30;;;;;;;4.32;1.02;;;;;;;;;;5020597;28;20030;-63
2021/12/03 22:42:57;;;;;;;4.75;1.17;;;;;;;;;;5011297;28;20057;-65
2021/12/03 22:45:29;;;;;;;8.27;1.10;;;;;;;;;;5021755;28;20497;-69
2021/12/03 22:48:01;;;;;;;3.25;0.90;;;;;;;;;;5020360;28;20057;-68
2021/12/03 22:52:58;;;;;;;5.18;1.20;;;;;;;;;;5018506;28;20037;-59